sensor_id;sensor_type;location;lat;lon;timestamp;P1;durP1;ratioP1;P2;durP2;ratioP2
21800;SDS011;11062;51.164;16.924;2022-09-09T00:02:06;12.98;;;9.73;;
21800;SDS011;11062;51.164;16.924;2022-09-09T00:04:43;12.13;;;8.98;;
21800;SDS011;11062;51.164;16.924;2022-09-09T00:07:36;12.73;;;8.40;;
21800;SDS011;11062;51.164;16.924;2022-09-09T00:12:54;8.68;;;7.18;;
21800;SDS011;11062;51.164;16.924;2022-09-09T00:15:52;8.38;;;6.47;;
21800;SDS011;11062;51.164;16.924;2022-09-09T00:18:27;7.55;;;5.97;;
21800;SDS011;11062;51.164;16.924;2022-09-09T00:21:05;7.00;;;6.22;;
21800;SDS011;11062;51.164;16.924;2022-09-09T00:23:40;9.70;;;6.80;;
21800;SDS011;11062;51.164;16.924;2022-09-09T00:28:58;8.40;;;5.65;;
21800;SDS011;11062;51.164;16.924;2022-09-09T00:31:44;5.88;;;5.22;;
21800;SDS011;11062;51.164;16.924;2022-09-09T00:34:16;8.75;;;5.93;;
21800;SDS011;11062;51.164;16.924;2022-09-09T00:36:47;6.07;;;5.47;;
21800;SDS011;11062;51.164;16.924;2022-09-09T00:39:25;5.63;;;5.00;;
21800;SDS011;11062;51.164;16.924;2022-09-09T00:42:17;7.47;;;5.28;;
21800;SDS011;11062;51.164;16.924;2022-09-09T00:44:51;7.05;;;4.88;;
21800;SDS011;11062;51.164;16.924;2022-09-09T00:47:24;5.80;;;4.72;;
21800;SDS011;11062;51.164;16.924;2022-09-09T00:50:13;8.65;;;5.07;;
21800;SDS011;11062;51.164;16.924;2022-09-09T00:52:57;5.47;;;4.70;;
21800;SDS011;11062;51.164;16.924;2022-09-09T00:58:07;7.18;;;5.18;;
21800;SDS011;11062;51.164;16.924;2022-09-09T01:00:44;5.38;;;4.38;;
21800;SDS011;11062;51.164;16.924;2022-09-09T01:14:27;7.18;;;3.97;;
21800;SDS011;11062;51.164;16.924;2022-09-09T01:17:46;4.88;;;4.32;;
21800;SDS011;11062;51.164;16.924;2022-09-09T01:20:03;6.32;;;4.35;;
21800;SDS011;11062;51.164;16.924;2022-09-09T01:28:09;10.57;;;6.88;;
21800;SDS011;11062;51.164;16.924;2022-09-09T01:30:41;11.35;;;7.47;;
21800;SDS011;11062;51.164;16.924;2022-09-09T01:33:08;8.75;;;7.70;;
21800;SDS011;11062;51.164;16.924;2022-09-09T01:38:13;10.65;;;4.90;;
21800;SDS011;11062;51.164;16.924;2022-09-09T01:40:40;5.38;;;3.13;;
21800;SDS011;11062;51.164;16.924;2022-09-09T01:43:05;5.43;;;3.20;;
21800;SDS011;11062;51.164;16.924;2022-09-09T01:45:32;7.35;;;3.53;;
21800;SDS011;11062;51.164;16.924;2022-09-09T01:47:59;13.43;;;4.00;;
21800;SDS011;11062;51.164;16.924;2022-09-09T01:50:25;6.78;;;4.95;;
21800;SDS011;11062;51.164;16.924;2022-09-09T01:52:56;8.27;;;5.88;;
21800;SDS011;11062;51.164;16.924;2022-09-09T01:55:33;7.32;;;5.03;;
21800;SDS011;11062;51.164;16.924;2022-09-09T02:00:59;5.85;;;4.13;;
21800;SDS011;11062;51.164;16.924;2022-09-09T02:03:32;8.00;;;5.60;;
21800;SDS011;11062;51.164;16.924;2022-09-09T02:06:43;11.20;;;6.00;;
21800;SDS011;11062;51.164;16.924;2022-09-09T02:09:04;13.45;;;7.05;;
21800;SDS011;11062;51.164;16.924;2022-09-09T02:11:32;10.05;;;7.80;;
21800;SDS011;11062;51.164;16.924;2022-09-09T02:14:04;12.20;;;6.15;;
21800;SDS011;11062;51.164;16.924;2022-09-09T02:16:40;8.70;;;7.28;;
21800;SDS011;11062;51.164;16.924;2022-09-09T02:19:32;17.67;;;13.80;;
21800;SDS011;11062;51.164;16.924;2022-09-09T02:22:19;19.33;;;12.40;;
21800;SDS011;11062;51.164;16.924;2022-09-09T02:24:48;14.98;;;12.15;;
21800;SDS011;11062;51.164;16.924;2022-09-09T02:27:18;15.07;;;9.50;;
21800;SDS011;11062;51.164;16.924;2022-09-09T02:29:47;11.80;;;8.95;;
21800;SDS011;11062;51.164;16.924;2022-09-09T02:32:16;10.85;;;8.50;;
21800;SDS011;11062;51.164;16.924;2022-09-09T02:34:46;7.82;;;6.97;;
21800;SDS011;11062;51.164;16.924;2022-09-09T02:37:19;8.40;;;6.85;;
21800;SDS011;11062;51.164;16.924;2022-09-09T02:39:50;13.73;;;8.15;;
21800;SDS011;11062;51.164;16.924;2022-09-09T02:42:16;6.93;;;6.22;;
21800;SDS011;11062;51.164;16.924;2022-09-09T02:44:42;10.23;;;6.57;;
21800;SDS011;11062;51.164;16.924;2022-09-09T02:49:57;8.75;;;6.40;;
21800;SDS011;11062;51.164;16.924;2022-09-09T02:52:46;10.30;;;6.70;;
21800;SDS011;11062;51.164;16.924;2022-09-09T02:55:17;11.32;;;6.78;;
21800;SDS011;11062;51.164;16.924;2022-09-09T02:57:46;7.35;;;6.55;;
21800;SDS011;11062;51.164;16.924;2022-09-09T03:00:14;10.57;;;7.30;;
21800;SDS011;11062;51.164;16.924;2022-09-09T03:02:40;13.68;;;7.75;;
21800;SDS011;11062;51.164;16.924;2022-09-09T03:05:07;10.75;;;8.00;;
21800;SDS011;11062;51.164;16.924;2022-09-09T03:07:33;10.68;;;8.60;;
21800;SDS011;11062;51.164;16.924;2022-09-09T03:10:00;11.95;;;9.18;;
21800;SDS011;11062;51.164;16.924;2022-09-09T03:12:26;14.00;;;9.52;;
21800;SDS011;11062;51.164;16.924;2022-09-09T03:14:52;14.45;;;8.93;;
21800;SDS011;11062;51.164;16.924;2022-09-09T03:17:17;14.73;;;9.18;;
21800;SDS011;11062;51.164;16.924;2022-09-09T03:19:43;13.75;;;9.07;;
21800;SDS011;11062;51.164;16.924;2022-09-09T03:22:10;9.10;;;8.13;;
21800;SDS011;11062;51.164;16.924;2022-09-09T03:24:36;10.32;;;7.95;;
21800;SDS011;11062;51.164;16.924;2022-09-09T03:27:02;9.90;;;7.55;;
21800;SDS011;11062;51.164;16.924;2022-09-09T03:29:28;9.45;;;7.90;;
21800;SDS011;11062;51.164;16.924;2022-09-09T03:31:54;13.90;;;8.85;;
21800;SDS011;11062;51.164;16.924;2022-09-09T03:34:21;10.93;;;8.23;;
21800;SDS011;11062;51.164;16.924;2022-09-09T03:36:47;10.02;;;7.78;;
21800;SDS011;11062;51.164;16.924;2022-09-09T03:39:14;10.05;;;8.40;;
21800;SDS011;11062;51.164;16.924;2022-09-09T03:41:40;12.93;;;9.95;;
21800;SDS011;11062;51.164;16.924;2022-09-09T03:44:12;14.40;;;9.18;;
21800;SDS011;11062;51.164;16.924;2022-09-09T03:46:38;9.80;;;8.35;;
21800;SDS011;11062;51.164;16.924;2022-09-09T03:49:04;12.95;;;10.43;;
21800;SDS011;11062;51.164;16.924;2022-09-09T03:51:30;15.07;;;10.75;;
21800;SDS011;11062;51.164;16.924;2022-09-09T03:53:56;14.82;;;10.13;;
21800;SDS011;11062;51.164;16.924;2022-09-09T03:56:31;14.60;;;9.57;;
21800;SDS011;11062;51.164;16.924;2022-09-09T04:00:04;12.52;;;9.13;;
21800;SDS011;11062;51.164;16.924;2022-09-09T04:02:46;10.35;;;8.18;;
21800;SDS011;11062;51.164;16.924;2022-09-09T04:05:24;18.50;;;10.38;;
21800;SDS011;11062;51.164;16.924;2022-09-09T04:08:27;15.80;;;10.43;;
21800;SDS011;11062;51.164;16.924;2022-09-09T04:11:17;12.10;;;9.25;;
21800;SDS011;11062;51.164;16.924;2022-09-09T04:14:10;12.05;;;8.63;;
21800;SDS011;11062;51.164;16.924;2022-09-09T04:16:36;11.35;;;8.15;;
21800;SDS011;11062;51.164;16.924;2022-09-09T04:19:03;12.70;;;7.47;;
21800;SDS011;11062;51.164;16.924;2022-09-09T04:21:37;10.68;;;7.63;;
21800;SDS011;11062;51.164;16.924;2022-09-09T04:24:28;9.85;;;8.07;;
21800;SDS011;11062;51.164;16.924;2022-09-09T04:27:07;10.77;;;7.55;;
21800;SDS011;11062;51.164;16.924;2022-09-09T04:29:43;9.20;;;6.25;;
21800;SDS011;11062;51.164;16.924;2022-09-09T04:32:12;12.85;;;7.35;;
21800;SDS011;11062;51.164;16.924;2022-09-09T04:34:52;10.95;;;6.88;;
21800;SDS011;11062;51.164;16.924;2022-09-09T04:37:22;9.48;;;7.25;;
21800;SDS011;11062;51.164;16.924;2022-09-09T04:39:49;9.52;;;7.30;;
21800;SDS011;11062;51.164;16.924;2022-09-09T04:42:16;12.43;;;6.60;;
21800;SDS011;11062;51.164;16.924;2022-09-09T04:44:44;9.73;;;6.32;;
21800;SDS011;11062;51.164;16.924;2022-09-09T04:47:11;10.70;;;6.85;;
21800;SDS011;11062;51.164;16.924;2022-09-09T04:49:40;8.10;;;5.95;;
21800;SDS011;11062;51.164;16.924;2022-09-09T04:52:07;11.15;;;5.93;;
21800;SDS011;11062;51.164;16.924;2022-09-09T04:54:34;5.72;;;5.22;;
21800;SDS011;11062;51.164;16.924;2022-09-09T04:57:00;7.18;;;4.70;;
21800;SDS011;11062;51.164;16.924;2022-09-09T05:10:37;5.20;;;4.72;;
21800;SDS011;11062;51.164;16.924;2022-09-09T05:15:39;6.18;;;5.43;;
21800;SDS011;11062;51.164;16.924;2022-09-09T05:18:08;4.75;;;4.30;;
21800;SDS011;11062;51.164;16.924;2022-09-09T05:20:40;5.75;;;4.82;;
21800;SDS011;11062;51.164;16.924;2022-09-09T05:23:07;5.32;;;4.82;;
21800;SDS011;11062;51.164;16.924;2022-09-09T05:25:36;4.82;;;4.38;;
21800;SDS011;11062;51.164;16.924;2022-09-09T05:28:02;4.18;;;3.83;;
21800;SDS011;11062;51.164;16.924;2022-09-09T05:30:28;5.93;;;4.32;;
21800;SDS011;11062;51.164;16.924;2022-09-09T05:32:55;3.55;;;3.25;;
21800;SDS011;11062;51.164;16.924;2022-09-09T05:35:21;5.95;;;3.85;;
21800;SDS011;11062;51.164;16.924;2022-09-09T05:37:48;9.50;;;4.45;;
21800;SDS011;11062;51.164;16.924;2022-09-09T05:40:14;3.90;;;3.58;;
21800;SDS011;11062;51.164;16.924;2022-09-09T05:42:40;8.32;;;3.83;;
21800;SDS011;11062;51.164;16.924;2022-09-09T05:45:07;6.60;;;3.97;;
21800;SDS011;11062;51.164;16.924;2022-09-09T05:47:36;4.32;;;3.70;;
21800;SDS011;11062;51.164;16.924;2022-09-09T05:50:02;5.15;;;4.03;;
21800;SDS011;11062;51.164;16.924;2022-09-09T05:52:29;13.30;;;4.43;;
21800;SDS011;11062;51.164;16.924;2022-09-09T05:54:55;6.97;;;4.50;;
21800;SDS011;11062;51.164;16.924;2022-09-09T05:57:22;5.25;;;4.13;;
21800;SDS011;11062;51.164;16.924;2022-09-09T05:59:48;4.65;;;3.60;;
21800;SDS011;11062;51.164;16.924;2022-09-09T06:02:14;4.35;;;3.47;;
21800;SDS011;11062;51.164;16.924;2022-09-09T06:04:41;9.60;;;3.83;;
21800;SDS011;11062;51.164;16.924;2022-09-09T06:07:07;4.00;;;3.47;;
21800;SDS011;11062;51.164;16.924;2022-09-09T06:09:33;9.27;;;4.15;;
21800;SDS011;11062;51.164;16.924;2022-09-09T06:11:59;7.75;;;4.60;;
21800;SDS011;11062;51.164;16.924;2022-09-09T06:14:25;7.90;;;4.65;;
21800;SDS011;11062;51.164;16.924;2022-09-09T06:16:52;8.85;;;4.30;;
21800;SDS011;11062;51.164;16.924;2022-09-09T06:19:17;11.98;;;6.35;;
21800;SDS011;11062;51.164;16.924;2022-09-09T06:21:44;5.97;;;4.45;;
21800;SDS011;11062;51.164;16.924;2022-09-09T06:24:10;13.68;;;8.43;;
21800;SDS011;11062;51.164;16.924;2022-09-09T06:26:39;15.68;;;5.82;;
21800;SDS011;11062;51.164;16.924;2022-09-09T06:29:06;12.35;;;7.38;;
21800;SDS011;11062;51.164;16.924;2022-09-09T06:31:33;4.85;;;4.18;;
21800;SDS011;11062;51.164;16.924;2022-09-09T06:34:00;5.80;;;4.30;;
21800;SDS011;11062;51.164;16.924;2022-09-09T06:36:28;8.60;;;4.10;;
21800;SDS011;11062;51.164;16.924;2022-09-09T06:38:56;9.60;;;4.22;;
21800;SDS011;11062;51.164;16.924;2022-09-09T06:49:38;5.47;;;3.40;;
21800;SDS011;11062;51.164;16.924;2022-09-09T09:24:40;2.60;;;1.20;;
21800;SDS011;11062;51.164;16.924;2022-09-09T09:27:15;4.55;;;1.23;;
21800;SDS011;11062;51.164;16.924;2022-09-09T09:29:46;2.75;;;1.58;;
21800;SDS011;11062;51.164;16.924;2022-09-09T09:32:16;2.58;;;1.30;;
21800;SDS011;11062;51.164;16.924;2022-09-09T09:34:49;5.22;;;1.52;;
21800;SDS011;11062;51.164;16.924;2022-09-09T09:40:13;3.05;;;1.30;;
21800;SDS011;11062;51.164;16.924;2022-09-09T09:45:34;5.50;;;1.30;;
21800;SDS011;11062;51.164;16.924;2022-09-09T09:48:10;3.85;;;1.17;;
21800;SDS011;11062;51.164;16.924;2022-09-09T09:50:48;2.63;;;1.33;;
21800;SDS011;11062;51.164;16.924;2022-09-09T09:53:20;2.97;;;1.13;;
21800;SDS011;11062;51.164;16.924;2022-09-09T09:56:08;5.40;;;1.23;;
21800;SDS011;11062;51.164;16.924;2022-09-09T10:01:20;4.00;;;1.20;;
21800;SDS011;11062;51.164;16.924;2022-09-09T10:03:57;3.97;;;1.27;;
21800;SDS011;11062;51.164;16.924;2022-09-09T10:06:31;1.63;;;1.10;;
21800;SDS011;11062;51.164;16.924;2022-09-09T10:08:58;2.00;;;1.00;;
21800;SDS011;11062;51.164;16.924;2022-09-09T10:11:39;3.38;;;1.23;;
21800;SDS011;11062;51.164;16.924;2022-09-09T10:23:17;4.97;;;1.33;;
21800;SDS011;11062;51.164;16.924;2022-09-09T10:29:13;5.18;;;1.15;;
21800;SDS011;11062;51.164;16.924;2022-09-09T10:31:52;3.10;;;1.30;;
21800;SDS011;11062;51.164;16.924;2022-09-09T10:34:49;1.58;;;1.20;;
21800;SDS011;11062;51.164;16.924;2022-09-09T10:37:37;3.35;;;1.40;;
21800;SDS011;11062;51.164;16.924;2022-09-09T10:40:32;4.22;;;1.50;;
21800;SDS011;11062;51.164;16.924;2022-09-09T10:43:18;4.70;;;1.80;;
21800;SDS011;11062;51.164;16.924;2022-09-09T10:46:21;2.88;;;1.45;;
21800;SDS011;11062;51.164;16.924;2022-09-09T10:54:52;2.58;;;1.30;;
21800;SDS011;11062;51.164;16.924;2022-09-09T10:57:30;3.22;;;1.30;;
21800;SDS011;11062;51.164;16.924;2022-09-09T11:02:52;3.08;;;1.60;;
21800;SDS011;11062;51.164;16.924;2022-09-09T11:08:19;2.67;;;1.30;;
21800;SDS011;11062;51.164;16.924;2022-09-09T11:10:56;2.58;;;1.50;;
21800;SDS011;11062;51.164;16.924;2022-09-09T11:13:57;2.30;;;1.05;;
21800;SDS011;11062;51.164;16.924;2022-09-09T11:19:19;3.90;;;1.48;;
21800;SDS011;11062;51.164;16.924;2022-09-09T11:21:55;1.52;;;1.20;;
21800;SDS011;11062;51.164;16.924;2022-09-09T11:24:32;1.95;;;1.40;;
21800;SDS011;11062;51.164;16.924;2022-09-09T11:27:19;2.08;;;1.30;;
21800;SDS011;11062;51.164;16.924;2022-09-09T11:30:02;3.92;;;1.33;;
21800;SDS011;11062;51.164;16.924;2022-09-09T11:38:21;5.78;;;1.50;;
21800;SDS011;11062;51.164;16.924;2022-09-09T11:41:07;2.15;;;1.20;;
21800;SDS011;11062;51.164;16.924;2022-09-09T11:46:18;2.40;;;1.15;;
21800;SDS011;11062;51.164;16.924;2022-09-09T11:49:04;5.18;;;1.30;;
21800;SDS011;11062;51.164;16.924;2022-09-09T11:51:50;2.80;;;1.20;;
21800;SDS011;11062;51.164;16.924;2022-09-09T11:57:32;4.78;;;1.67;;
21800;SDS011;11062;51.164;16.924;2022-09-09T12:00:01;2.67;;;1.50;;
21800;SDS011;11062;51.164;16.924;2022-09-09T12:02:31;3.47;;;1.27;;
21800;SDS011;11062;51.164;16.924;2022-09-09T12:05:02;1.98;;;1.15;;
21800;SDS011;11062;51.164;16.924;2022-09-09T12:10:28;2.20;;;1.10;;
21800;SDS011;11062;51.164;16.924;2022-09-09T12:13:09;5.97;;;1.65;;
21800;SDS011;11062;51.164;16.924;2022-09-09T12:15:49;1.75;;;1.17;;
21800;SDS011;11062;51.164;16.924;2022-09-09T12:18:21;1.83;;;1.05;;
21800;SDS011;11062;51.164;16.924;2022-09-09T12:20:52;3.88;;;1.00;;
21800;SDS011;11062;51.164;16.924;2022-09-09T12:26:13;6.82;;;1.30;;
21800;SDS011;11062;51.164;16.924;2022-09-09T12:37:02;4.18;;;1.20;;
21800;SDS011;11062;51.164;16.924;2022-09-09T12:39:42;2.72;;;1.20;;
21800;SDS011;11062;51.164;16.924;2022-09-09T12:42:21;3.25;;;1.33;;
21800;SDS011;11062;51.164;16.924;2022-09-09T12:45:01;1.77;;;1.20;;
21800;SDS011;11062;51.164;16.924;2022-09-09T12:50:22;2.58;;;1.40;;
21800;SDS011;11062;51.164;16.924;2022-09-09T12:52:52;6.47;;;1.25;;
21800;SDS011;11062;51.164;16.924;2022-09-09T12:55:38;2.67;;;1.20;;
21800;SDS011;11062;51.164;16.924;2022-09-09T13:01:23;3.97;;;1.40;;
21800;SDS011;11062;51.164;16.924;2022-09-09T13:04:19;1.50;;;0.93;;
21800;SDS011;11062;51.164;16.924;2022-09-09T13:07:11;3.33;;;0.90;;
21800;SDS011;11062;51.164;16.924;2022-09-09T13:09:58;2.08;;;1.10;;
21800;SDS011;11062;51.164;16.924;2022-09-09T13:12:34;1.98;;;1.30;;
21800;SDS011;11062;51.164;16.924;2022-09-09T13:15:12;2.15;;;1.40;;
21800;SDS011;11062;51.164;16.924;2022-09-09T13:18:16;1.98;;;1.42;;
21800;SDS011;11062;51.164;16.924;2022-09-09T13:22:19;2.43;;;1.47;;
21800;SDS011;11062;51.164;16.924;2022-09-09T13:24:58;1.90;;;1.10;;
21800;SDS011;11062;51.164;16.924;2022-09-09T13:28:02;2.05;;;1.13;;
21800;SDS011;11062;51.164;16.924;2022-09-09T13:30:58;2.25;;;1.40;;
21800;SDS011;11062;51.164;16.924;2022-09-09T13:37:05;2.80;;;1.13;;
21800;SDS011;11062;51.164;16.924;2022-09-09T13:40:05;1.92;;;1.27;;
21800;SDS011;11062;51.164;16.924;2022-09-09T13:43:21;1.30;;;1.20;;
21800;SDS011;11062;51.164;16.924;2022-09-09T13:54:57;2.40;;;1.08;;
21800;SDS011;11062;51.164;16.924;2022-09-09T13:57:52;1.65;;;1.17;;
21800;SDS011;11062;51.164;16.924;2022-09-09T14:00:23;1.50;;;1.15;;
21800;SDS011;11062;51.164;16.924;2022-09-09T14:02:49;2.05;;;1.13;;
21800;SDS011;11062;51.164;16.924;2022-09-09T14:05:17;1.88;;;1.20;;
21800;SDS011;11062;51.164;16.924;2022-09-09T14:07:43;1.13;;;1.02;;
21800;SDS011;11062;51.164;16.924;2022-09-09T14:10:10;3.90;;;1.23;;
21800;SDS011;11062;51.164;16.924;2022-09-09T14:12:37;3.20;;;1.02;;
21800;SDS011;11062;51.164;16.924;2022-09-09T14:15:04;1.95;;;1.27;;
21800;SDS011;11062;51.164;16.924;2022-09-09T14:17:31;2.33;;;1.10;;
21800;SDS011;11062;51.164;16.924;2022-09-09T14:19:58;3.38;;;1.40;;
21800;SDS011;11062;51.164;16.924;2022-09-09T14:22:24;3.05;;;1.25;;
21800;SDS011;11062;51.164;16.924;2022-09-09T14:24:51;2.30;;;1.20;;
21800;SDS011;11062;51.164;16.924;2022-09-09T14:27:17;1.90;;;1.20;;
21800;SDS011;11062;51.164;16.924;2022-09-09T14:29:46;3.92;;;1.40;;
21800;SDS011;11062;51.164;16.924;2022-09-09T14:32:12;1.98;;;1.17;;
21800;SDS011;11062;51.164;16.924;2022-09-09T14:34:37;2.80;;;1.17;;
21800;SDS011;11062;51.164;16.924;2022-09-09T14:51:08;1.70;;;1.17;;
21800;SDS011;11062;51.164;16.924;2022-09-09T14:54:21;2.28;;;1.00;;
21800;SDS011;11062;51.164;16.924;2022-09-09T14:57:32;4.53;;;1.15;;
21800;SDS011;11062;51.164;16.924;2022-09-09T15:00:48;2.22;;;0.90;;
21800;SDS011;11062;51.164;16.924;2022-09-09T15:04:39;1.73;;;1.05;;
21800;SDS011;11062;51.164;16.924;2022-09-09T15:10:24;3.28;;;1.40;;
21800;SDS011;11062;51.164;16.924;2022-09-09T15:13:45;2.47;;;1.42;;
21800;SDS011;11062;51.164;16.924;2022-09-09T15:16:45;3.10;;;1.33;;
21800;SDS011;11062;51.164;16.924;2022-09-09T15:19:34;2.38;;;1.40;;
21800;SDS011;11062;51.164;16.924;2022-09-09T15:26:37;1.73;;;1.05;;
21800;SDS011;11062;51.164;16.924;2022-09-09T15:29:47;5.93;;;1.20;;
21800;SDS011;11062;51.164;16.924;2022-09-09T15:32:41;1.88;;;1.17;;
21800;SDS011;11062;51.164;16.924;2022-09-09T15:35:07;9.13;;;1.80;;
21800;SDS011;11062;51.164;16.924;2022-09-09T16:07:55;2.13;;;1.20;;
21800;SDS011;11062;51.164;16.924;2022-09-09T16:10:22;44.88;;;4.38;;
21800;SDS011;11062;51.164;16.924;2022-09-09T16:12:49;8.20;;;1.70;;
21800;SDS011;11062;51.164;16.924;2022-09-09T16:15:17;6.30;;;2.10;;
21800;SDS011;11062;51.164;16.924;2022-09-09T16:17:47;6.03;;;1.70;;
21800;SDS011;11062;51.164;16.924;2022-09-09T16:20:18;4.13;;;1.33;;
21800;SDS011;11062;51.164;16.924;2022-09-09T16:23:04;5.93;;;1.65;;
21800;SDS011;11062;51.164;16.924;2022-09-09T16:25:37;4.35;;;1.27;;
21800;SDS011;11062;51.164;16.924;2022-09-09T16:28:07;6.47;;;2.08;;
21800;SDS011;11062;51.164;16.924;2022-09-09T16:30:46;8.90;;;1.50;;
21800;SDS011;11062;51.164;16.924;2022-09-09T16:33:22;2.47;;;1.42;;
21800;SDS011;11062;51.164;16.924;2022-09-09T16:35:51;2.70;;;1.52;;
21800;SDS011;11062;51.164;16.924;2022-09-09T16:38:20;11.70;;;1.88;;
21800;SDS011;11062;51.164;16.924;2022-09-09T16:40:58;2.33;;;1.80;;
21800;SDS011;11062;51.164;16.924;2022-09-09T16:54:32;5.10;;;1.58;;
21800;SDS011;11062;51.164;16.924;2022-09-09T17:00:04;5.43;;;2.10;;
21800;SDS011;11062;51.164;16.924;2022-09-09T17:02:41;3.05;;;1.58;;
21800;SDS011;11062;51.164;16.924;2022-09-09T18:48:55;4.07;;;1.63;;
21800;SDS011;11062;51.164;16.924;2022-09-09T18:59:31;7.00;;;2.35;;
21800;SDS011;11062;51.164;16.924;2022-09-09T19:03:19;2.15;;;1.60;;
21800;SDS011;11062;51.164;16.924;2022-09-09T19:40:26;2.65;;;1.73;;
21800;SDS011;11062;51.164;16.924;2022-09-09T19:46:53;8.82;;;2.63;;
21800;SDS011;11062;51.164;16.924;2022-09-09T19:50:35;5.50;;;2.00;;
21800;SDS011;11062;51.164;16.924;2022-09-09T19:54:18;4.65;;;1.88;;
21800;SDS011;11062;51.164;16.924;2022-09-09T20:04:27;5.72;;;2.47;;
21800;SDS011;11062;51.164;16.924;2022-09-09T21:46:09;4.63;;;1.10;;
21800;SDS011;11062;51.164;16.924;2022-09-09T21:48:45;1.70;;;1.20;;
21800;SDS011;11062;51.164;16.924;2022-09-09T21:51:49;2.05;;;1.33;;
21800;SDS011;11062;51.164;16.924;2022-09-09T21:55:23;2.40;;;1.40;;
21800;SDS011;11062;51.164;16.924;2022-09-09T22:02:03;2.45;;;1.10;;
21800;SDS011;11062;51.164;16.924;2022-09-09T22:04:38;1.85;;;1.02;;
21800;SDS011;11062;51.164;16.924;2022-09-09T22:10:14;2.15;;;0.90;;
21800;SDS011;11062;51.164;16.924;2022-09-09T22:13:20;1.20;;;0.65;;
21800;SDS011;11062;51.164;16.924;2022-09-09T22:16:12;2.45;;;1.10;;
21800;SDS011;11062;51.164;16.924;2022-09-09T22:18:40;5.07;;;0.90;;
21800;SDS011;11062;51.164;16.924;2022-09-09T22:21:07;3.30;;;1.20;;
21800;SDS011;11062;51.164;16.924;2022-09-09T22:23:37;4.35;;;1.60;;
21800;SDS011;11062;51.164;16.924;2022-09-09T22:26:04;3.03;;;1.70;;
21800;SDS011;11062;51.164;16.924;2022-09-09T22:28:31;2.97;;;1.60;;
21800;SDS011;11062;51.164;16.924;2022-09-09T22:30:57;3.22;;;1.58;;
21800;SDS011;11062;51.164;16.924;2022-09-09T22:33:23;2.70;;;1.48;;
21800;SDS011;11062;51.164;16.924;2022-09-09T22:35:51;2.97;;;1.58;;
21800;SDS011;11062;51.164;16.924;2022-09-09T22:38:17;3.00;;;1.70;;
21800;SDS011;11062;51.164;16.924;2022-09-09T22:40:43;2.97;;;2.10;;
21800;SDS011;11062;51.164;16.924;2022-09-09T22:43:12;3.97;;;1.90;;
21800;SDS011;11062;51.164;16.924;2022-09-09T22:45:43;5.80;;;1.77;;
21800;SDS011;11062;51.164;16.924;2022-09-09T22:48:10;4.47;;;2.00;;
21800;SDS011;11062;51.164;16.924;2022-09-09T22:50:37;4.05;;;1.60;;
21800;SDS011;11062;51.164;16.924;2022-09-09T22:53:11;4.80;;;1.70;;
21800;SDS011;11062;51.164;16.924;2022-09-09T22:55:38;4.75;;;2.15;;
21800;SDS011;11062;51.164;16.924;2022-09-09T22:58:04;3.03;;;1.85;;
21800;SDS011;11062;51.164;16.924;2022-09-09T23:00:30;2.08;;;1.67;;
21800;SDS011;11062;51.164;16.924;2022-09-09T23:02:56;4.90;;;1.90;;
21800;SDS011;11062;51.164;16.924;2022-09-09T23:05:22;6.22;;;1.83;;
21800;SDS011;11062;51.164;16.924;2022-09-09T23:07:49;2.55;;;1.75;;
21800;SDS011;11062;51.164;16.924;2022-09-09T23:10:17;9.02;;;2.10;;
21800;SDS011;11062;51.164;16.924;2022-09-09T23:12:43;3.55;;;2.03;;
21800;SDS011;11062;51.164;16.924;2022-09-09T23:15:09;4.05;;;2.00;;
21800;SDS011;11062;51.164;16.924;2022-09-09T23:17:36;7.18;;;1.80;;
21800;SDS011;11062;51.164;16.924;2022-09-09T23:20:03;2.70;;;1.50;;
21800;SDS011;11062;51.164;16.924;2022-09-09T23:22:31;2.45;;;1.70;;
21800;SDS011;11062;51.164;16.924;2022-09-09T23:24:59;5.10;;;1.83;;
21800;SDS011;11062;51.164;16.924;2022-09-09T23:27:26;6.13;;;2.17;;
21800;SDS011;11062;51.164;16.924;2022-09-09T23:29:53;2.95;;;1.65;;
21800;SDS011;11062;51.164;16.924;2022-09-09T23:32:21;2.15;;;1.55;;
21800;SDS011;11062;51.164;16.924;2022-09-09T23:34:48;2.35;;;1.30;;
21800;SDS011;11062;51.164;16.924;2022-09-09T23:37:14;2.50;;;1.48;;
21800;SDS011;11062;51.164;16.924;2022-09-09T23:39:40;2.40;;;1.50;;
21800;SDS011;11062;51.164;16.924;2022-09-09T23:42:07;4.00;;;1.50;;
21800;SDS011;11062;51.164;16.924;2022-09-09T23:44:34;1.85;;;1.05;;
21800;SDS011;11062;51.164;16.924;2022-09-09T23:47:02;2.75;;;1.50;;
21800;SDS011;11062;51.164;16.924;2022-09-09T23:49:30;2.20;;;1.25;;
21800;SDS011;11062;51.164;16.924;2022-09-09T23:52:00;2.42;;;1.30;;
21800;SDS011;11062;51.164;16.924;2022-09-09T23:54:29;3.00;;;1.20;;
21800;SDS011;11062;51.164;16.924;2022-09-09T23:56:55;8.02;;;1.50;;
21800;SDS011;11062;51.164;16.924;2022-09-09T23:59:21;4.32;;;1.45;;
